createdAt,value
2022-10-09T00:01:44.803Z,79.90
2022-10-09T00:04:15.802Z,80.01
2022-10-09T00:06:46.595Z,80.21
2022-10-09T00:09:18.678Z,80.20
2022-10-09T00:11:48.086Z,80.20
2022-10-09T00:14:18.777Z,80.25
2022-10-09T00:16:50.404Z,80.57
2022-10-09T00:19:21.570Z,80.83
2022-10-09T00:21:51.123Z,80.94
2022-10-09T00:24:20.386Z,80.98
2022-10-09T00:26:49.493Z,80.93
2022-10-09T00:29:18.803Z,80.96
2022-10-09T00:31:50.468Z,81.16
2022-10-09T00:34:20.228Z,81.15
2022-10-09T00:36:49.352Z,81.32
2022-10-09T00:39:18.503Z,81.54
2022-10-09T00:41:48.405Z,81.57
2022-10-09T00:44:55.025Z,81.56
2022-10-09T00:47:44.539Z,81.53
2022-10-09T00:50:19.735Z,81.53
2022-10-09T00:52:52.931Z,81.65
2022-10-09T00:55:22.488Z,81.72
2022-10-09T00:57:55.638Z,81.75
2022-10-09T01:00:26.834Z,81.91
2022-10-09T01:02:56.362Z,82.09
2022-10-09T01:05:33.020Z,82.20
2022-10-09T01:08:11.293Z,82.28
2022-10-09T01:10:52.599Z,82.26
2022-10-09T01:13:49.221Z,82.23
2022-10-09T01:16:24.091Z,82.21
2022-10-09T01:19:18.637Z,82.28
2022-10-09T01:21:59.162Z,82.29
2022-10-09T01:24:38.779Z,82.35
2022-10-09T01:27:27.518Z,82.39
2022-10-09T01:30:00.358Z,82.44
2022-10-09T01:32:33.105Z,82.41
2022-10-09T01:35:02.516Z,82.50
2022-10-09T01:37:31.863Z,82.50
2022-10-09T01:40:00.926Z,82.64
2022-10-09T01:42:31.411Z,82.83
2022-10-09T01:45:00.351Z,82.81
2022-10-09T01:47:29.893Z,82.88
2022-10-09T01:50:26.904Z,83.00
2022-10-09T01:53:01.610Z,83.06
2022-10-09T01:55:36.675Z,83.10
2022-10-09T01:58:41.071Z,83.08
2022-10-09T02:01:20.603Z,83.13
2022-10-09T02:03:51.482Z,83.10
2022-10-09T02:06:21.579Z,83.05
2022-10-09T02:08:54.387Z,82.96
2022-10-09T02:11:29.673Z,82.94
2022-10-09T02:14:00.138Z,83.03
2022-10-09T02:16:42.021Z,82.99
2022-10-09T02:19:25.664Z,82.92
2022-10-09T02:22:16.238Z,82.91
2022-10-09T02:24:45.318Z,82.83
2022-10-09T02:27:17.769Z,82.79
2022-10-09T02:29:48.934Z,82.77
2022-10-09T02:32:18.297Z,82.77
2022-10-09T02:34:47.938Z,82.85
2022-10-09T02:37:16.749Z,82.92
2022-10-09T02:39:46.335Z,82.95
2022-10-09T02:42:15.462Z,83.03
2022-10-09T02:44:44.318Z,83.10
2022-10-09T02:47:14.483Z,83.01
2022-10-09T02:49:44.990Z,82.92
2022-10-09T02:52:14.741Z,82.93
2022-10-09T02:54:44.938Z,83.01
2022-10-09T02:57:14.649Z,82.94
2022-10-09T02:59:43.512Z,82.91
2022-10-09T03:02:14.205Z,82.99
2022-10-09T03:04:44.767Z,83.02
2022-10-09T03:07:14.686Z,83.13
2022-10-09T03:09:45.370Z,83.24
2022-10-09T03:12:17.359Z,83.35
2022-10-09T03:14:47.908Z,83.29
2022-10-09T03:17:16.788Z,83.23
2022-10-09T03:19:46.677Z,83.29
2022-10-09T03:22:16.397Z,83.27
2022-10-09T03:24:46.353Z,83.22
2022-10-09T03:27:15.545Z,83.18
2022-10-09T03:29:47.785Z,83.19
2022-10-09T03:32:17.114Z,83.18
2022-10-09T03:34:48.170Z,83.31
2022-10-09T03:37:18.469Z,83.51
2022-10-09T03:39:47.885Z,83.62
2022-10-09T03:42:17.579Z,83.81
2022-10-09T03:44:46.747Z,83.90
2022-10-09T03:47:17.144Z,83.88
2022-10-09T03:49:47.760Z,83.89
2022-10-09T03:52:18.239Z,83.86
2022-10-09T03:54:48.594Z,83.68
2022-10-09T03:57:17.847Z,83.57
2022-10-09T03:59:47.898Z,83.52
2022-10-09T04:02:16.860Z,83.49
2022-10-09T04:04:47.739Z,83.46
2022-10-09T04:07:18.584Z,83.58
2022-10-09T04:09:48.883Z,83.62
2022-10-09T04:12:21.951Z,83.63
2022-10-09T04:14:51.596Z,83.62
2022-10-09T04:17:22.749Z,83.66
2022-10-09T04:19:53.512Z,83.65
2022-10-09T04:22:23.118Z,83.72
2022-10-09T04:24:52.921Z,83.75
2022-10-09T04:27:22.713Z,83.83
2022-10-09T04:29:53.115Z,84.04
2022-10-09T04:32:23.268Z,84.18
2022-10-09T04:34:52.540Z,84.22
2022-10-09T04:37:22.007Z,84.23
2022-10-09T04:39:51.717Z,84.30
2022-10-09T04:42:20.591Z,84.35
2022-10-09T04:44:49.649Z,84.40
2022-10-09T04:47:20.215Z,84.48
2022-10-09T04:49:50.206Z,84.68
2022-10-09T04:52:20.474Z,84.88
2022-10-09T04:54:50.795Z,85.06
2022-10-09T04:57:20.590Z,85.02
2022-10-09T04:59:50.323Z,85.07
2022-10-09T05:02:20.262Z,85.16
2022-10-09T05:04:49.624Z,85.19
2022-10-09T05:07:18.726Z,85.25
2022-10-09T05:09:47.618Z,85.20
2022-10-09T05:12:17.287Z,85.18
2022-10-09T05:14:46.741Z,85.22
2022-10-09T05:17:22.779Z,85.28
2022-10-09T05:19:52.413Z,85.25
2022-10-09T05:22:26.141Z,85.36
2022-10-09T05:24:55.985Z,85.46
2022-10-09T05:27:26.040Z,85.62
2022-10-09T05:29:56.162Z,85.73
2022-10-09T05:32:26.096Z,85.66
2022-10-09T05:34:56.078Z,85.56
2022-10-09T05:37:25.585Z,85.57
2022-10-09T05:39:54.509Z,85.49
2022-10-09T05:42:24.784Z,85.26
2022-10-09T05:44:54.794Z,85.02
2022-10-09T05:47:25.139Z,84.65
2022-10-09T05:49:55.409Z,84.40
2022-10-09T05:52:24.652Z,84.12
2022-10-09T05:54:53.547Z,83.89
2022-10-09T05:57:23.127Z,83.60
2022-10-09T05:59:52.516Z,83.24
2022-10-09T06:02:22.254Z,82.91
2022-10-09T06:04:52.310Z,82.68
2022-10-09T06:07:21.818Z,82.48
2022-10-09T06:09:51.934Z,82.39
2022-10-09T06:12:22.350Z,82.15
2022-10-09T06:14:52.752Z,82.06
2022-10-09T06:17:22.075Z,82.05
2022-10-09T06:19:52.308Z,82.12
2022-10-09T06:22:22.183Z,82.13
2022-10-09T06:24:51.495Z,82.16
2022-10-09T06:27:22.165Z,82.11
2022-10-09T06:29:53.297Z,81.97
2022-10-09T06:32:22.337Z,81.83
2022-10-09T06:34:53.388Z,81.80
2022-10-09T06:37:24.429Z,81.77
2022-10-09T06:39:53.335Z,81.76
2022-10-09T06:42:23.479Z,81.74
2022-10-09T06:44:53.050Z,81.64
2022-10-09T06:47:21.866Z,81.57
2022-10-09T06:49:53.306Z,81.47
2022-10-09T06:52:25.658Z,81.37
2022-10-09T06:54:54.757Z,81.21
2022-10-09T06:57:25.696Z,81.01
2022-10-09T06:59:55.679Z,80.84
2022-10-09T07:02:24.595Z,80.54
2022-10-09T07:04:54.536Z,80.27
2022-10-09T07:07:24.693Z,80.14
2022-10-09T07:09:54.667Z,80.05
2022-10-09T07:12:24.403Z,80.02
2022-10-09T07:14:55.182Z,79.92
2022-10-09T07:17:24.887Z,79.72
2022-10-09T07:19:57.524Z,79.62
2022-10-09T07:22:27.810Z,79.61
2022-10-09T07:24:57.526Z,78.98
2022-10-09T07:27:26.983Z,78.48
2022-10-09T07:29:57.198Z,78.12
2022-10-09T07:32:26.312Z,77.67
2022-10-09T07:34:55.794Z,77.37
2022-10-09T07:37:25.009Z,77.16
2022-10-09T07:39:55.130Z,77.12
2022-10-09T07:42:24.152Z,76.94
2022-10-09T07:44:53.919Z,76.59
2022-10-09T07:47:24.185Z,76.29
2022-10-09T07:49:53.927Z,75.76
2022-10-09T07:52:24.000Z,75.21
2022-10-09T07:54:53.609Z,74.17
2022-10-09T07:57:22.697Z,72.03
2022-10-09T07:59:53.171Z,69.70
2022-10-09T08:02:23.093Z,68.30
2022-10-09T08:04:53.325Z,67.32
2022-10-09T08:07:22.603Z,66.28
2022-10-09T08:09:53.106Z,65.69
2022-10-09T08:12:22.522Z,65.42
2022-10-09T08:14:54.038Z,65.09
2022-10-09T08:17:24.190Z,64.03
2022-10-09T08:19:54.310Z,63.19
2022-10-09T08:22:24.365Z,62.45
2022-10-09T08:24:54.545Z,61.64
2022-10-09T08:27:23.734Z,60.84
2022-10-09T08:29:53.688Z,60.20
2022-10-09T08:32:23.780Z,59.58
2022-10-09T08:34:53.294Z,59.18
2022-10-09T08:37:22.338Z,58.93
2022-10-09T08:39:52.558Z,58.68
2022-10-09T08:42:33.064Z,57.64
2022-10-09T08:45:03.993Z,57.36
2022-10-09T08:47:45.853Z,57.41
2022-10-09T08:50:22.121Z,56.78
2022-10-09T08:53:06.908Z,56.96
2022-10-09T08:55:54.053Z,57.12
2022-10-09T08:58:29.493Z,56.87
2022-10-09T09:01:05.229Z,56.80
2022-10-09T09:03:46.894Z,56.09
2022-10-09T09:06:30.913Z,56.12
2022-10-09T09:09:24.904Z,56.10
2022-10-09T09:12:22.618Z,56.57
2022-10-09T09:15:34.138Z,56.26
2022-10-09T09:18:23.912Z,54.59
2022-10-09T09:20:59.868Z,52.94
2022-10-09T09:23:33.483Z,52.71
2022-10-09T09:26:03.643Z,52.91
2022-10-09T09:28:34.957Z,52.90
2022-10-09T09:31:09.684Z,52.94
2022-10-09T09:34:07.800Z,53.18
2022-10-09T09:36:49.719Z,52.82
2022-10-09T09:40:30.910Z,52.92
2022-10-09T09:41:51.019Z,52.77
2022-10-09T09:44:21.103Z,52.60
2022-10-09T09:46:50.148Z,52.39
2022-10-09T09:49:23.474Z,51.56
2022-10-09T09:51:53.343Z,51.75
2022-10-09T09:54:27.070Z,51.30
2022-10-09T09:57:12.773Z,50.96
2022-10-09T09:59:40.093Z,50.91
2022-10-09T10:02:20.534Z,50.63
2022-10-09T10:04:53.745Z,50.89
2022-10-09T10:07:37.914Z,50.84
2022-10-09T10:10:20.998Z,50.92
2022-10-09T10:12:54.888Z,50.75
2022-10-09T10:15:31.356Z,50.80
2022-10-09T10:18:13.210Z,50.72
2022-10-09T10:20:48.988Z,50.62
2022-10-09T10:23:28.308Z,50.75
2022-10-09T10:25:58.515Z,50.73
2022-10-09T10:28:32.982Z,50.00
2022-10-09T10:31:04.970Z,50.15
2022-10-09T10:33:34.004Z,49.89
2022-10-09T10:36:04.500Z,49.99
2022-10-09T10:38:54.240Z,50.04
2022-10-09T10:41:28.613Z,49.95
2022-10-09T10:44:06.604Z,49.94
2022-10-09T10:46:57.240Z,50.08
2022-10-09T10:49:32.918Z,50.11
2022-10-09T10:52:10.138Z,50.28
2022-10-09T10:54:43.428Z,50.47
2022-10-09T10:57:20.759Z,50.64
2022-10-09T11:00:03.279Z,50.65
2022-10-09T11:03:18.970Z,50.71
2022-10-09T11:06:08.018Z,50.91
2022-10-09T11:08:54.758Z,51.23
2022-10-09T11:12:15.838Z,51.44
2022-10-09T11:15:22.235Z,51.62
2022-10-09T11:18:19.826Z,51.88
2022-10-09T11:21:39.974Z,52.77
2022-10-09T11:24:37.493Z,52.78
2022-10-09T11:27:20.803Z,52.99
2022-10-09T11:30:16.119Z,53.34
2022-10-09T11:33:21.064Z,53.58
2022-10-09T11:36:07.249Z,53.48
2022-10-09T11:38:39.601Z,53.21
2022-10-09T11:41:09.603Z,52.89
2022-10-09T11:43:53.413Z,52.68
2022-10-09T11:46:43.843Z,52.69
2022-10-09T11:49:24.058Z,53.01
2022-10-09T11:52:21.509Z,52.96
2022-10-09T11:54:50.630Z,52.94
2022-10-09T11:57:28.605Z,53.15
2022-10-09T12:00:10.674Z,53.29
2022-10-09T12:02:40.268Z,53.81
2022-10-09T12:05:36.348Z,54.63
2022-10-09T12:08:20.689Z,55.19
2022-10-09T12:11:19.378Z,55.65
2022-10-09T12:13:57.938Z,56.10
2022-10-09T12:16:39.481Z,56.66
2022-10-09T12:19:25.373Z,57.34
2022-10-09T12:22:15.449Z,58.16
2022-10-09T12:24:50.684Z,58.90
2022-10-09T12:27:31.374Z,60.21
2022-10-09T12:30:07.468Z,61.49
2022-10-09T12:32:40.419Z,62.26
2022-10-09T12:35:31.516Z,63.45
2022-10-09T12:38:01.113Z,65.15
2022-10-09T12:40:32.788Z,66.34
2022-10-09T12:43:07.962Z,67.41
2022-10-09T12:45:44.594Z,68.15
2022-10-09T12:48:14.208Z,68.89
2022-10-09T12:50:43.294Z,69.70
2022-10-09T12:53:18.850Z,70.67
2022-10-09T12:55:58.941Z,72.06
2022-10-09T12:58:31.493Z,73.13
2022-10-09T13:01:05.326Z,74.52
2022-10-09T13:03:39.103Z,75.61
2022-10-09T13:06:14.733Z,76.47
2022-10-09T13:08:44.818Z,77.48
2022-10-09T13:11:33.113Z,78.49
2022-10-09T13:14:05.133Z,79.53
2022-10-09T13:16:43.018Z,80.48
2022-10-09T13:19:27.518Z,81.18
2022-10-09T13:22:21.714Z,81.96
2022-10-09T13:24:53.093Z,82.74
2022-10-09T13:27:26.624Z,83.58
2022-10-09T13:29:55.720Z,84.37
2022-10-09T13:32:26.185Z,85.11
2022-10-09T13:34:57.734Z,85.86
2022-10-09T13:37:27.020Z,86.57
2022-10-09T13:39:57.943Z,87.54
2022-10-09T13:42:31.478Z,88.32
2022-10-09T13:45:00.997Z,88.76
2022-10-09T13:47:31.423Z,89.16
2022-10-09T13:50:00.363Z,89.64
2022-10-09T13:52:30.166Z,89.92
2022-10-09T13:55:00.574Z,90.17
2022-10-09T13:57:31.663Z,90.58
2022-10-09T14:00:02.220Z,90.92
2022-10-09T14:02:33.378Z,91.28
2022-10-09T14:05:03.245Z,91.81
2022-10-09T14:07:34.443Z,92.00
2022-10-09T14:10:04.672Z,92.15
2022-10-09T14:12:34.488Z,92.17
2022-10-09T14:15:06.583Z,92.14
2022-10-09T14:17:36.201Z,92.26
2022-10-09T14:20:07.354Z,92.32
2022-10-09T14:22:38.084Z,92.46
2022-10-09T14:25:08.800Z,92.63
2022-10-09T14:27:41.510Z,92.82
2022-10-09T14:30:12.525Z,92.77
2022-10-09T14:32:41.892Z,92.69
2022-10-09T14:35:11.641Z,92.67
2022-10-09T14:37:42.394Z,92.57
2022-10-09T14:40:12.776Z,92.44
2022-10-09T14:42:45.839Z,92.41
2022-10-09T14:45:16.496Z,92.42
2022-10-09T14:47:45.866Z,92.46
2022-10-09T14:50:15.098Z,92.53
2022-10-09T14:52:44.614Z,92.57
2022-10-09T14:55:14.187Z,92.61
2022-10-09T14:57:44.981Z,92.73
2022-10-09T15:00:15.437Z,92.84
2022-10-09T15:02:44.857Z,92.94
2022-10-09T15:05:14.581Z,92.99
2022-10-09T15:07:45.769Z,93.01
2022-10-09T15:10:16.630Z,93.05
2022-10-09T15:12:46.644Z,92.99
2022-10-09T15:15:15.901Z,92.90
2022-10-09T15:17:46.564Z,92.85
2022-10-09T15:20:17.534Z,92.85
2022-10-09T15:22:48.045Z,92.89
2022-10-09T15:25:17.693Z,92.76
2022-10-09T15:27:51.322Z,92.80
2022-10-09T15:30:18.976Z,92.83
2022-10-09T15:32:47.812Z,92.66
2022-10-09T15:35:16.897Z,92.59
2022-10-09T15:37:46.061Z,92.57
2022-10-09T15:40:15.596Z,92.61
2022-10-09T15:42:47.737Z,92.64
2022-10-09T15:45:17.469Z,92.81
2022-10-09T15:47:51.273Z,92.90
2022-10-09T15:50:18.946Z,92.82
2022-10-09T15:52:49.038Z,92.68
2022-10-09T15:55:18.418Z,92.70
2022-10-09T15:57:48.269Z,92.74
2022-10-09T16:00:17.203Z,92.80
2022-10-09T16:02:48.586Z,92.75
2022-10-09T16:05:17.710Z,92.76
2022-10-09T16:07:47.203Z,92.68
2022-10-09T16:10:17.354Z,92.67
2022-10-09T16:12:47.916Z,92.85
2022-10-09T16:15:19.116Z,92.97
2022-10-09T16:17:50.607Z,93.15
2022-10-09T16:20:22.385Z,93.15
2022-10-09T16:22:52.662Z,93.21
2022-10-09T16:25:22.620Z,93.22
2022-10-09T16:27:52.027Z,93.24
2022-10-09T16:30:22.686Z,93.20
2022-10-09T16:32:52.606Z,93.32
2022-10-09T16:35:22.447Z,93.30
2022-10-09T16:37:55.489Z,93.33
2022-10-09T16:40:49.846Z,93.40
2022-10-09T16:42:59.917Z,93.53
2022-10-09T16:45:31.268Z,93.57
2022-10-09T16:48:00.070Z,93.59
2022-10-09T16:50:29.662Z,93.61
2022-10-09T16:53:00.153Z,93.61
2022-10-09T16:55:29.833Z,93.63
2022-10-09T16:57:59.293Z,93.63
2022-10-09T17:00:29.263Z,93.68
2022-10-09T17:02:59.194Z,93.64
2022-10-09T17:05:29.748Z,93.54
2022-10-09T17:07:59.493Z,93.46
2022-10-09T17:10:29.496Z,93.36
2022-10-09T17:12:58.800Z,93.32
2022-10-09T17:15:29.762Z,93.31
2022-10-09T17:18:01.843Z,93.35
2022-10-09T17:20:32.379Z,93.34
2022-10-09T17:23:02.709Z,93.39
2022-10-09T17:25:34.245Z,93.40
2022-10-09T17:28:07.859Z,93.47
2022-10-09T17:30:40.286Z,93.42
2022-10-09T17:33:10.526Z,93.42
2022-10-09T17:35:40.702Z,93.35
2022-10-09T17:38:10.450Z,93.32
2022-10-09T17:40:40.830Z,93.39
2022-10-09T17:43:10.523Z,93.40
2022-10-09T17:45:41.961Z,93.38
2022-10-09T17:48:23.569Z,93.34
2022-10-09T17:50:53.811Z,93.27
2022-10-09T17:53:24.302Z,93.27
2022-10-09T17:55:55.363Z,93.26
2022-10-09T17:58:24.510Z,93.23
2022-10-09T18:00:53.599Z,93.20
2022-10-09T18:03:22.913Z,93.25
2022-10-09T18:05:52.921Z,93.37
2022-10-09T18:08:22.049Z,93.44
2022-10-09T18:11:01.641Z,93.40
2022-10-09T18:13:32.011Z,93.38
2022-10-09T18:16:08.312Z,93.31
2022-10-09T18:18:39.666Z,93.29
2022-10-09T18:21:11.153Z,93.39
2022-10-09T18:23:41.121Z,93.37
2022-10-09T18:26:12.241Z,93.30
2022-10-09T18:28:44.712Z,93.17
2022-10-09T18:31:19.137Z,93.11
2022-10-09T18:33:49.732Z,93.13
2022-10-09T18:36:22.834Z,92.76
2022-10-09T18:38:55.140Z,92.50
2022-10-09T18:41:25.491Z,92.08
2022-10-09T18:43:55.333Z,91.79
2022-10-09T18:46:25.884Z,91.49
2022-10-09T18:48:55.134Z,91.08
2022-10-09T18:51:26.499Z,90.39
2022-10-09T18:53:59.770Z,89.92
2022-10-09T18:56:31.454Z,89.44
2022-10-09T18:59:01.773Z,88.95
2022-10-09T19:01:33.601Z,88.59
2022-10-09T19:04:04.069Z,88.32
2022-10-09T19:06:32.958Z,88.16
2022-10-09T19:09:02.569Z,87.94
2022-10-09T19:11:33.580Z,87.79
2022-10-09T19:14:03.912Z,87.58
2022-10-09T19:16:36.182Z,87.33
2022-10-09T19:19:06.212Z,87.28
2022-10-09T19:21:36.119Z,87.10
2022-10-09T19:24:06.824Z,87.03
2022-10-09T19:26:37.194Z,86.95
2022-10-09T19:29:06.222Z,86.88
2022-10-09T19:31:36.492Z,86.88
2022-10-09T19:34:06.773Z,86.85
2022-10-09T19:36:36.585Z,86.82
2022-10-09T19:39:07.251Z,86.81
2022-10-09T19:41:38.462Z,86.73
2022-10-09T19:44:09.080Z,86.71
2022-10-09T19:46:39.207Z,86.64
2022-10-09T19:49:09.424Z,86.61
2022-10-09T19:51:39.426Z,86.57
2022-10-09T19:54:09.797Z,86.60
2022-10-09T19:56:40.940Z,86.66
2022-10-09T19:59:11.083Z,86.56
2022-10-09T20:01:40.733Z,86.48
2022-10-09T20:04:10.300Z,86.46
2022-10-09T20:06:41.482Z,86.45
2022-10-09T20:09:11.268Z,86.40
2022-10-09T20:11:42.360Z,86.36
2022-10-09T20:14:12.777Z,86.30
2022-10-09T20:16:43.647Z,86.27
2022-10-09T20:19:12.548Z,86.21
2022-10-09T20:21:43.525Z,86.17
2022-10-09T20:24:13.612Z,86.11
2022-10-09T20:26:43.749Z,86.12
2022-10-09T20:29:14.618Z,86.05
2022-10-09T20:31:48.755Z,85.81
2022-10-09T20:34:17.914Z,85.72
2022-10-09T20:36:49.172Z,85.70
2022-10-09T20:39:19.357Z,85.73
2022-10-09T20:41:51.803Z,85.69
2022-10-09T20:44:21.376Z,85.64
2022-10-09T20:46:52.039Z,85.62
2022-10-09T20:49:20.953Z,85.76
2022-10-09T20:51:51.157Z,85.78
2022-10-09T20:54:21.751Z,85.71
2022-10-09T20:56:52.577Z,85.60
2022-10-09T20:59:23.185Z,85.56
2022-10-09T21:01:53.105Z,85.65
2022-10-09T21:04:22.556Z,85.61
2022-10-09T21:06:52.325Z,85.65
2022-10-09T21:09:23.122Z,85.65
2022-10-09T21:11:53.936Z,85.64
2022-10-09T21:14:23.537Z,85.73
2022-10-09T21:16:53.785Z,85.69
2022-10-09T21:19:23.986Z,85.64
2022-10-09T21:21:53.153Z,85.58
2022-10-09T21:24:22.138Z,85.58
2022-10-09T21:26:56.593Z,85.62
2022-10-09T21:29:26.906Z,85.72
2022-10-09T21:31:56.712Z,85.67
2022-10-09T21:34:26.618Z,85.63
2022-10-09T21:37:19.689Z,85.57
2022-10-09T21:39:27.660Z,85.53
2022-10-09T21:41:57.621Z,85.54
2022-10-09T21:44:30.202Z,85.52
2022-10-09T21:46:59.326Z,85.50
2022-10-09T21:49:29.051Z,85.52
2022-10-09T21:51:58.752Z,85.41
2022-10-09T21:54:29.040Z,85.32
2022-10-09T21:56:58.369Z,85.28
2022-10-09T21:59:28.917Z,85.24
2022-10-09T22:02:00.217Z,85.18
2022-10-09T22:04:29.748Z,85.01
2022-10-09T22:06:59.111Z,84.90
2022-10-09T22:09:28.956Z,84.73
2022-10-09T22:12:00.404Z,84.65
2022-10-09T22:14:32.521Z,84.75
2022-10-09T22:17:03.102Z,84.82
2022-10-09T22:19:33.417Z,84.81
2022-10-09T22:22:02.288Z,84.88
2022-10-09T22:24:31.976Z,84.87
2022-10-09T22:27:02.783Z,84.73
2022-10-09T22:29:32.649Z,84.78
2022-10-09T22:32:01.765Z,84.78
2022-10-09T22:34:30.528Z,84.66
2022-10-09T22:37:00.270Z,84.59
2022-10-09T22:39:29.388Z,84.54
2022-10-09T22:41:58.955Z,84.50
2022-10-09T22:44:28.070Z,84.42
2022-10-09T22:46:57.795Z,84.54
2022-10-09T22:49:27.562Z,84.54
2022-10-09T22:51:56.997Z,84.52
2022-10-09T22:54:26.992Z,84.54
2022-10-09T22:56:56.082Z,84.46
2022-10-09T22:59:24.830Z,84.48
2022-10-09T23:01:56.335Z,84.29
2022-10-09T23:04:27.033Z,84.31
2022-10-09T23:06:57.851Z,84.26
2022-10-09T23:09:30.123Z,84.18
2022-10-09T23:12:00.599Z,84.21
2022-10-09T23:14:31.397Z,84.28
2022-10-09T23:17:01.429Z,84.26
2022-10-09T23:19:31.549Z,84.32
2022-10-09T23:22:00.546Z,84.25
2022-10-09T23:24:30.103Z,84.28
2022-10-09T23:26:59.817Z,84.38
2022-10-09T23:29:30.189Z,84.40
2022-10-09T23:32:00.601Z,84.49
2022-10-09T23:34:29.996Z,84.48
2022-10-09T23:36:59.730Z,84.40
2022-10-09T23:39:28.752Z,84.37
2022-10-09T23:41:59.036Z,84.39
2022-10-09T23:44:27.693Z,84.38
2022-10-09T23:46:57.523Z,84.41
2022-10-09T23:49:26.851Z,84.36
2022-10-09T23:51:55.621Z,84.49
2022-10-09T23:54:25.243Z,84.62
2022-10-09T23:56:55.556Z,84.68
2022-10-09T23:59:25.216Z,84.71
